sensor_id;sensor_type;location;lat;lon;timestamp;pressure;altitude;pressure_sealevel;temperature;humidity
33422;BME280;19763;55.798;37.782;2023-03-26T00:01:18;61273.97;;;-145.63;100.00
33422;BME280;19763;55.798;37.782;2023-03-26T00:03:46;61273.97;;;-145.63;100.00
33422;BME280;19763;55.798;37.782;2023-03-26T00:06:21;61273.97;;;-145.63;100.00
33422;BME280;19763;55.798;37.782;2023-03-26T00:08:48;61273.97;;;-145.63;100.00
33422;BME280;19763;55.798;37.782;2023-03-26T00:11:16;61273.97;;;-145.63;100.00
33422;BME280;19763;55.798;37.782;2023-03-26T00:13:42;61273.97;;;-145.63;100.00
33422;BME280;19763;55.798;37.782;2023-03-26T00:16:11;61273.97;;;-145.63;100.00
33422;BME280;19763;55.798;37.782;2023-03-26T00:18:38;61273.97;;;-145.63;100.00
33422;BME280;19763;55.798;37.782;2023-03-26T00:21:08;61273.97;;;-145.63;100.00
33422;BME280;19763;55.798;37.782;2023-03-26T00:23:35;61273.97;;;-145.63;100.00
33422;BME280;19763;55.798;37.782;2023-03-26T00:26:01;61273.97;;;-145.63;100.00
33422;BME280;19763;55.798;37.782;2023-03-26T00:28:28;61273.97;;;-145.63;100.00
33422;BME280;19763;55.798;37.782;2023-03-26T00:31:03;61273.97;;;-145.63;100.00
33422;BME280;19763;55.798;37.782;2023-03-26T00:33:29;61273.97;;;-145.63;100.00
33422;BME280;19763;55.798;37.782;2023-03-26T00:35:57;61273.97;;;-145.63;100.00
33422;BME280;19763;55.798;37.782;2023-03-26T00:38:27;61273.97;;;-145.63;100.00
33422;BME280;19763;55.798;37.782;2023-03-26T00:40:53;61273.97;;;-145.63;100.00
33422;BME280;19763;55.798;37.782;2023-03-26T00:43:20;61273.97;;;-145.63;100.00
33422;BME280;19763;55.798;37.782;2023-03-26T00:45:47;61273.97;;;-145.63;100.00
33422;BME280;19763;55.798;37.782;2023-03-26T00:48:14;61273.97;;;-145.63;100.00
33422;BME280;19763;55.798;37.782;2023-03-26T00:50:41;61273.97;;;-145.63;100.00
33422;BME280;19763;55.798;37.782;2023-03-26T00:53:08;61273.97;;;-145.63;100.00
33422;BME280;19763;55.798;37.782;2023-03-26T00:55:36;61273.97;;;-145.63;100.00
33422;BME280;19763;55.798;37.782;2023-03-26T00:58:02;61273.97;;;-145.63;100.00
33422;BME280;19763;55.798;37.782;2023-03-26T01:00:30;61273.97;;;-145.63;100.00
33422;BME280;19763;55.798;37.782;2023-03-26T01:03:00;61273.97;;;-145.63;100.00
33422;BME280;19763;55.798;37.782;2023-03-26T01:08:14;61273.97;;;-145.63;100.00
33422;BME280;19763;55.798;37.782;2023-03-26T01:10:42;61273.97;;;-145.63;100.00
33422;BME280;19763;55.798;37.782;2023-03-26T01:13:17;61273.97;;;-145.63;100.00
33422;BME280;19763;55.798;37.782;2023-03-26T01:15:43;61273.97;;;-145.63;100.00
33422;BME280;19763;55.798;37.782;2023-03-26T01:18:17;61273.97;;;-145.63;100.00
33422;BME280;19763;55.798;37.782;2023-03-26T01:20:44;61273.97;;;-145.63;100.00
33422;BME280;19763;55.798;37.782;2023-03-26T01:23:12;61273.97;;;-145.63;100.00
33422;BME280;19763;55.798;37.782;2023-03-26T01:25:45;61273.97;;;-145.63;100.00
33422;BME280;19763;55.798;37.782;2023-03-26T01:28:12;61273.97;;;-145.63;100.00
33422;BME280;19763;55.798;37.782;2023-03-26T01:30:48;61273.97;;;-145.63;100.00
33422;BME280;19763;55.798;37.782;2023-03-26T01:36:24;61273.97;;;-145.63;100.00
33422;BME280;19763;55.798;37.782;2023-03-26T01:39:03;61273.97;;;-145.63;100.00
33422;BME280;19763;55.798;37.782;2023-03-26T01:41:45;61273.97;;;-145.63;100.00
33422;BME280;19763;55.798;37.782;2023-03-26T01:46:59;61273.97;;;-145.63;100.00
33422;BME280;19763;55.798;37.782;2023-03-26T01:49:29;61273.97;;;-145.63;100.00
33422;BME280;19763;55.798;37.782;2023-03-26T01:51:56;61273.97;;;-145.63;100.00
33422;BME280;19763;55.798;37.782;2023-03-26T01:54:25;61273.97;;;-145.63;100.00
33422;BME280;19763;55.798;37.782;2023-03-26T01:59:53;61273.97;;;-145.63;100.00
33422;BME280;19763;55.798;37.782;2023-03-26T02:02:39;61273.97;;;-145.63;100.00
33422;BME280;19763;55.798;37.782;2023-03-26T02:05:14;61273.97;;;-145.63;100.00
33422;BME280;19763;55.798;37.782;2023-03-26T02:07:56;61273.97;;;-145.63;100.00
33422;BME280;19763;55.798;37.782;2023-03-26T02:10:29;61273.97;;;-145.63;100.00
33422;BME280;19763;55.798;37.782;2023-03-26T02:12:57;61273.97;;;-145.63;100.00
33422;BME280;19763;55.798;37.782;2023-03-26T02:15:23;61273.97;;;-145.63;100.00
33422;BME280;19763;55.798;37.782;2023-03-26T02:17:49;61273.97;;;-145.63;100.00
33422;BME280;19763;55.798;37.782;2023-03-26T02:20:16;61273.97;;;-145.63;100.00
33422;BME280;19763;55.798;37.782;2023-03-26T02:22:43;61273.97;;;-145.63;100.00
33422;BME280;19763;55.798;37.782;2023-03-26T02:25:19;61273.97;;;-145.63;100.00
33422;BME280;19763;55.798;37.782;2023-03-26T02:27:46;61273.97;;;-145.63;100.00
33422;BME280;19763;55.798;37.782;2023-03-26T02:30:16;61273.97;;;-145.63;100.00
33422;BME280;19763;55.798;37.782;2023-03-26T02:32:42;61273.97;;;-145.63;100.00
33422;BME280;19763;55.798;37.782;2023-03-26T02:35:09;61273.97;;;-145.63;100.00
33422;BME280;19763;55.798;37.782;2023-03-26T02:37:35;61273.97;;;-145.63;100.00
33422;BME280;19763;55.798;37.782;2023-03-26T02:40:01;61273.97;;;-145.63;100.00
33422;BME280;19763;55.798;37.782;2023-03-26T02:42:29;61273.97;;;-145.63;100.00
33422;BME280;19763;55.798;37.782;2023-03-26T02:44:54;61273.97;;;-145.63;100.00
33422;BME280;19763;55.798;37.782;2023-03-26T02:47:20;61273.97;;;-145.63;100.00
33422;BME280;19763;55.798;37.782;2023-03-26T02:49:45;61273.97;;;-145.63;100.00
33422;BME280;19763;55.798;37.782;2023-03-26T02:52:11;61273.97;;;-145.63;100.00
33422;BME280;19763;55.798;37.782;2023-03-26T02:54:37;61273.97;;;-145.63;100.00
33422;BME280;19763;55.798;37.782;2023-03-26T02:57:02;61273.97;;;-145.63;100.00
33422;BME280;19763;55.798;37.782;2023-03-26T02:59:28;61273.97;;;-145.63;100.00
33422;BME280;19763;55.798;37.782;2023-03-26T03:01:53;61273.97;;;-145.63;100.00
33422;BME280;19763;55.798;37.782;2023-03-26T03:04:19;61273.97;;;-145.63;100.00
33422;BME280;19763;55.798;37.782;2023-03-26T03:06:45;61273.97;;;-145.63;100.00
33422;BME280;19763;55.798;37.782;2023-03-26T03:09:11;61273.97;;;-145.63;100.00
33422;BME280;19763;55.798;37.782;2023-03-26T03:11:40;61273.97;;;-145.63;100.00
33422;BME280;19763;55.798;37.782;2023-03-26T03:14:06;61273.97;;;-145.63;100.00
33422;BME280;19763;55.798;37.782;2023-03-26T03:16:31;61273.97;;;-145.63;100.00
33422;BME280;19763;55.798;37.782;2023-03-26T03:18:57;61273.97;;;-145.63;100.00
33422;BME280;19763;55.798;37.782;2023-03-26T03:21:27;61273.97;;;-145.63;100.00
33422;BME280;19763;55.798;37.782;2023-03-26T03:23:54;61273.97;;;-145.63;100.00
33422;BME280;19763;55.798;37.782;2023-03-26T03:26:21;61273.97;;;-145.63;100.00
33422;BME280;19763;55.798;37.782;2023-03-26T03:28:48;61273.97;;;-145.63;100.00
33422;BME280;19763;55.798;37.782;2023-03-26T03:31:15;61273.97;;;-145.63;100.00
33422;BME280;19763;55.798;37.782;2023-03-26T03:33:41;61273.97;;;-145.63;100.00
33422;BME280;19763;55.798;37.782;2023-03-26T03:36:09;61273.97;;;-145.63;100.00
33422;BME280;19763;55.798;37.782;2023-03-26T03:38:37;61273.97;;;-145.63;100.00
33422;BME280;19763;55.798;37.782;2023-03-26T03:41:03;61273.97;;;-145.63;100.00
33422;BME280;19763;55.798;37.782;2023-03-26T03:43:28;61273.97;;;-145.63;100.00
33422;BME280;19763;55.798;37.782;2023-03-26T03:45:54;61273.97;;;-145.63;100.00
33422;BME280;19763;55.798;37.782;2023-03-26T03:48:19;61273.97;;;-145.63;100.00
33422;BME280;19763;55.798;37.782;2023-03-26T03:50:45;61273.97;;;-145.63;100.00
33422;BME280;19763;55.798;37.782;2023-03-26T03:53:11;61273.97;;;-145.63;100.00
33422;BME280;19763;55.798;37.782;2023-03-26T03:55:43;61273.97;;;-145.63;100.00
33422;BME280;19763;55.798;37.782;2023-03-26T03:58:21;61273.97;;;-145.63;100.00
33422;BME280;19763;55.798;37.782;2023-03-26T04:00:51;61273.97;;;-145.63;100.00
33422;BME280;19763;55.798;37.782;2023-03-26T04:03:18;61273.97;;;-145.63;100.00
33422;BME280;19763;55.798;37.782;2023-03-26T04:05:44;61273.97;;;-145.63;100.00
33422;BME280;19763;55.798;37.782;2023-03-26T04:08:17;61273.97;;;-145.63;100.00
33422;BME280;19763;55.798;37.782;2023-03-26T04:10:43;61273.97;;;-145.63;100.00
33422;BME280;19763;55.798;37.782;2023-03-26T04:13:13;61273.97;;;-145.63;100.00
33422;BME280;19763;55.798;37.782;2023-03-26T04:15:40;61273.97;;;-145.63;100.00
33422;BME280;19763;55.798;37.782;2023-03-26T04:18:07;61273.97;;;-145.63;100.00
33422;BME280;19763;55.798;37.782;2023-03-26T04:20:39;61273.97;;;-145.63;100.00
33422;BME280;19763;55.798;37.782;2023-03-26T04:23:17;61273.97;;;-145.63;100.00
33422;BME280;19763;55.798;37.782;2023-03-26T04:25:47;61273.97;;;-145.63;100.00
33422;BME280;19763;55.798;37.782;2023-03-26T04:28:27;61273.97;;;-145.63;100.00
33422;BME280;19763;55.798;37.782;2023-03-26T04:30:57;61273.97;;;-145.63;100.00
33422;BME280;19763;55.798;37.782;2023-03-26T04:33:29;61273.97;;;-145.63;100.00
33422;BME280;19763;55.798;37.782;2023-03-26T04:35:56;61273.97;;;-145.63;100.00
33422;BME280;19763;55.798;37.782;2023-03-26T04:38:27;61273.97;;;-145.63;100.00
33422;BME280;19763;55.798;37.782;2023-03-26T04:40:53;61273.97;;;-145.63;100.00
33422;BME280;19763;55.798;37.782;2023-03-26T04:43:19;61273.97;;;-145.63;100.00
33422;BME280;19763;55.798;37.782;2023-03-26T04:45:44;61273.97;;;-145.63;100.00
33422;BME280;19763;55.798;37.782;2023-03-26T04:48:12;61273.97;;;-145.63;100.00
33422;BME280;19763;55.798;37.782;2023-03-26T04:50:43;61273.97;;;-145.63;100.00
33422;BME280;19763;55.798;37.782;2023-03-26T04:53:14;61273.97;;;-145.63;100.00
33422;BME280;19763;55.798;37.782;2023-03-26T04:55:46;61273.97;;;-145.63;100.00
33422;BME280;19763;55.798;37.782;2023-03-26T04:58:16;61273.97;;;-145.63;100.00
33422;BME280;19763;55.798;37.782;2023-03-26T05:00:41;61273.97;;;-145.63;100.00
33422;BME280;19763;55.798;37.782;2023-03-26T05:03:12;61273.97;;;-145.63;100.00
33422;BME280;19763;55.798;37.782;2023-03-26T05:05:38;61273.97;;;-145.63;100.00
33422;BME280;19763;55.798;37.782;2023-03-26T05:08:04;61273.97;;;-145.63;100.00
33422;BME280;19763;55.798;37.782;2023-03-26T05:10:30;61273.97;;;-145.63;100.00
33422;BME280;19763;55.798;37.782;2023-03-26T05:12:56;61273.97;;;-145.63;100.00
33422;BME280;19763;55.798;37.782;2023-03-26T05:15:21;61273.97;;;-145.63;100.00
33422;BME280;19763;55.798;37.782;2023-03-26T05:17:47;61273.97;;;-145.63;100.00
33422;BME280;19763;55.798;37.782;2023-03-26T05:20:16;61273.97;;;-145.63;100.00
33422;BME280;19763;55.798;37.782;2023-03-26T05:22:45;61273.97;;;-145.63;100.00
33422;BME280;19763;55.798;37.782;2023-03-26T05:25:11;61273.97;;;-145.63;100.00
33422;BME280;19763;55.798;37.782;2023-03-26T05:27:37;61273.97;;;-145.63;100.00
33422;BME280;19763;55.798;37.782;2023-03-26T05:30:04;61273.97;;;-145.63;100.00
33422;BME280;19763;55.798;37.782;2023-03-26T05:32:30;61273.97;;;-145.63;100.00
33422;BME280;19763;55.798;37.782;2023-03-26T05:34:56;61273.97;;;-145.63;100.00
33422;BME280;19763;55.798;37.782;2023-03-26T05:37:22;61273.97;;;-145.63;100.00
33422;BME280;19763;55.798;37.782;2023-03-26T05:39:53;61273.97;;;-145.63;100.00
33422;BME280;19763;55.798;37.782;2023-03-26T05:42:19;61273.97;;;-145.63;100.00
33422;BME280;19763;55.798;37.782;2023-03-26T05:44:45;61273.97;;;-145.63;100.00
33422;BME280;19763;55.798;37.782;2023-03-26T05:47:10;61273.97;;;-145.63;100.00
33422;BME280;19763;55.798;37.782;2023-03-26T05:49:36;61273.97;;;-145.63;100.00
33422;BME280;19763;55.798;37.782;2023-03-26T05:52:02;61273.97;;;-145.63;100.00
33422;BME280;19763;55.798;37.782;2023-03-26T05:54:27;61273.97;;;-145.63;100.00
33422;BME280;19763;55.798;37.782;2023-03-26T05:56:53;61273.97;;;-145.63;100.00
33422;BME280;19763;55.798;37.782;2023-03-26T05:59:18;61273.97;;;-145.63;100.00
33422;BME280;19763;55.798;37.782;2023-03-26T06:01:44;61273.97;;;-145.63;100.00
33422;BME280;19763;55.798;37.782;2023-03-26T06:04:13;61273.97;;;-145.63;100.00
33422;BME280;19763;55.798;37.782;2023-03-26T06:06:40;61273.97;;;-145.63;100.00
33422;BME280;19763;55.798;37.782;2023-03-26T06:09:07;61273.97;;;-145.63;100.00
33422;BME280;19763;55.798;37.782;2023-03-26T06:11:33;61273.97;;;-145.63;100.00
33422;BME280;19763;55.798;37.782;2023-03-26T06:13:59;61273.97;;;-145.63;100.00
33422;BME280;19763;55.798;37.782;2023-03-26T06:16:25;61273.97;;;-145.63;100.00
33422;BME280;19763;55.798;37.782;2023-03-26T06:18:50;61273.97;;;-145.63;100.00
33422;BME280;19763;55.798;37.782;2023-03-26T06:21:17;61273.97;;;-145.63;100.00
33422;BME280;19763;55.798;37.782;2023-03-26T06:23:42;61273.97;;;-145.63;100.00
33422;BME280;19763;55.798;37.782;2023-03-26T06:26:08;61273.97;;;-145.63;100.00
33422;BME280;19763;55.798;37.782;2023-03-26T06:28:34;61273.97;;;-145.63;100.00
33422;BME280;19763;55.798;37.782;2023-03-26T06:31:01;61273.97;;;-145.63;100.00
33422;BME280;19763;55.798;37.782;2023-03-26T06:33:27;61273.97;;;-145.63;100.00
33422;BME280;19763;55.798;37.782;2023-03-26T06:35:52;61273.97;;;-145.63;100.00
33422;BME280;19763;55.798;37.782;2023-03-26T06:38:18;61273.97;;;-145.63;100.00
33422;BME280;19763;55.798;37.782;2023-03-26T06:40:43;61273.97;;;-145.63;100.00
33422;BME280;19763;55.798;37.782;2023-03-26T06:43:09;61273.97;;;-145.63;100.00
33422;BME280;19763;55.798;37.782;2023-03-26T06:45:36;61273.97;;;-145.63;100.00
33422;BME280;19763;55.798;37.782;2023-03-26T06:48:02;61273.97;;;-145.63;100.00
33422;BME280;19763;55.798;37.782;2023-03-26T06:50:28;61273.97;;;-145.63;100.00
33422;BME280;19763;55.798;37.782;2023-03-26T06:52:54;61273.97;;;-145.63;100.00
33422;BME280;19763;55.798;37.782;2023-03-26T06:55:20;61273.97;;;-145.63;100.00
33422;BME280;19763;55.798;37.782;2023-03-26T06:57:50;61273.97;;;-145.63;100.00
33422;BME280;19763;55.798;37.782;2023-03-26T07:00:17;61273.97;;;-145.63;100.00
33422;BME280;19763;55.798;37.782;2023-03-26T07:02:43;61273.97;;;-145.63;100.00
33422;BME280;19763;55.798;37.782;2023-03-26T07:05:08;61273.97;;;-145.63;100.00
33422;BME280;19763;55.798;37.782;2023-03-26T07:07:34;61273.97;;;-145.63;100.00
33422;BME280;19763;55.798;37.782;2023-03-26T07:10:00;61273.97;;;-145.63;100.00
33422;BME280;19763;55.798;37.782;2023-03-26T07:12:25;61273.97;;;-145.63;100.00
33422;BME280;19763;55.798;37.782;2023-03-26T07:14:51;61273.97;;;-145.63;100.00
33422;BME280;19763;55.798;37.782;2023-03-26T07:17:17;61273.97;;;-145.63;100.00
33422;BME280;19763;55.798;37.782;2023-03-26T07:19:43;61273.97;;;-145.63;100.00
33422;BME280;19763;55.798;37.782;2023-03-26T07:22:19;61273.97;;;-145.63;100.00
33422;BME280;19763;55.798;37.782;2023-03-26T07:24:46;61273.97;;;-145.63;100.00
33422;BME280;19763;55.798;37.782;2023-03-26T07:30:09;61273.97;;;-145.63;100.00
33422;BME280;19763;55.798;37.782;2023-03-26T07:44:11;61273.97;;;-145.63;100.00
33422;BME280;19763;55.798;37.782;2023-03-26T07:46:39;61273.97;;;-145.63;100.00
33422;BME280;19763;55.798;37.782;2023-03-26T07:49:07;61273.97;;;-145.63;100.00
33422;BME280;19763;55.798;37.782;2023-03-26T07:51:34;61273.97;;;-145.63;100.00
33422;BME280;19763;55.798;37.782;2023-03-26T07:54:00;61273.97;;;-145.63;100.00
33422;BME280;19763;55.798;37.782;2023-03-26T07:56:41;61273.97;;;-145.63;100.00
33422;BME280;19763;55.798;37.782;2023-03-26T07:59:21;61273.97;;;-145.63;100.00
33422;BME280;19763;55.798;37.782;2023-03-26T08:10:21;61273.97;;;-145.63;100.00
33422;BME280;19763;55.798;37.782;2023-03-26T08:13:13;61273.97;;;-145.63;100.00
33422;BME280;19763;55.798;37.782;2023-03-26T08:18:30;61273.97;;;-145.63;100.00
33422;BME280;19763;55.798;37.782;2023-03-26T08:26:39;61273.97;;;-145.63;100.00
33422;BME280;19763;55.798;37.782;2023-03-26T08:29:13;61273.97;;;-145.63;100.00
33422;BME280;19763;55.798;37.782;2023-03-26T08:31:43;61273.97;;;-145.63;100.00
33422;BME280;19763;55.798;37.782;2023-03-26T08:34:11;61273.97;;;-145.63;100.00
33422;BME280;19763;55.798;37.782;2023-03-26T08:36:37;61273.97;;;-145.63;100.00
33422;BME280;19763;55.798;37.782;2023-03-26T08:39:03;61273.97;;;-145.63;100.00
33422;BME280;19763;55.798;37.782;2023-03-26T08:44:43;61273.97;;;-145.63;100.00
33422;BME280;19763;55.798;37.782;2023-03-26T09:04:16;61273.97;;;-145.63;100.00
33422;BME280;19763;55.798;37.782;2023-03-26T09:27:37;61273.97;;;-145.63;100.00
33422;BME280;19763;55.798;37.782;2023-03-26T09:38:43;61273.97;;;-145.63;100.00
33422;BME280;19763;55.798;37.782;2023-03-26T09:41:13;61273.97;;;-145.63;100.00
33422;BME280;19763;55.798;37.782;2023-03-26T10:01:27;61273.97;;;-145.63;100.00
33422;BME280;19763;55.798;37.782;2023-03-26T10:09:24;61273.97;;;-145.63;100.00
33422;BME280;19763;55.798;37.782;2023-03-26T10:15:50;61273.97;;;-145.63;100.00
33422;BME280;19763;55.798;37.782;2023-03-26T10:20:51;61273.97;;;-145.63;100.00
33422;BME280;19763;55.798;37.782;2023-03-26T10:26:08;61273.97;;;-145.63;100.00
33422;BME280;19763;55.798;37.782;2023-03-26T10:49:55;149282.72;;;7.89;99.90
33422;BME280;19763;55.798;37.782;2023-03-26T10:52:41;149305.78;;;7.98;99.50
33422;BME280;19763;55.798;37.782;2023-03-26T10:55:25;149333.94;;;8.09;99.39
33422;BME280;19763;55.798;37.782;2023-03-26T11:00:42;149307.03;;;7.99;99.65
33422;BME280;19763;55.798;37.782;2023-03-26T11:09:17;149346.72;;;8.15;99.74
33422;BME280;19763;55.798;37.782;2023-03-26T11:17:25;149365.94;;;8.22;99.67
33422;BME280;19763;55.798;37.782;2023-03-26T11:20:08;149322.38;;;8.05;100.00
33422;BME280;19763;55.798;37.782;2023-03-26T11:33:34;149397.94;;;8.35;100.00
33422;BME280;19763;55.798;37.782;2023-03-26T11:36:05;149380.03;;;8.28;100.00
33422;BME280;19763;55.798;37.782;2023-03-26T11:38:35;149401.78;;;8.37;100.00
33422;BME280;19763;55.798;37.782;2023-03-26T11:41:03;149406.88;;;8.39;100.00
33422;BME280;19763;55.798;37.782;2023-03-26T11:43:34;149387.69;;;8.31;100.00
33422;BME280;19763;55.798;37.782;2023-03-26T11:46:03;149431.25;;;8.49;100.00
33422;BME280;19763;55.798;37.782;2023-03-26T11:48:39;149397.94;;;8.35;100.00
33422;BME280;19763;55.798;37.782;2023-03-26T11:51:10;149406.88;;;8.39;100.00
33422;BME280;19763;55.798;37.782;2023-03-26T11:53:38;149449.19;;;8.56;99.58
33422;BME280;19763;55.798;37.782;2023-03-26T11:56:24;149431.25;;;8.49;100.00
33422;BME280;19763;55.798;37.782;2023-03-26T11:59:28;149463.25;;;8.61;99.91
33422;BME280;19763;55.798;37.782;2023-03-26T12:01:56;149458.16;;;8.59;100.00
33422;BME280;19763;55.798;37.782;2023-03-26T12:04:26;149458.16;;;8.59;100.00
33422;BME280;19763;55.798;37.782;2023-03-26T12:07:08;149473.50;;;8.66;99.79
33422;BME280;19763;55.798;37.782;2023-03-26T12:09:53;149487.59;;;8.71;98.67
33422;BME280;19763;55.798;37.782;2023-03-26T12:12:23;149447.91;;;8.55;98.25
33422;BME280;19763;55.798;37.782;2023-03-26T12:14:49;149476.09;;;8.67;99.31
33422;BME280;19763;55.798;37.782;2023-03-26T12:17:32;149458.16;;;8.59;99.44
33422;BME280;19763;55.798;37.782;2023-03-26T12:19:58;149458.16;;;8.59;98.44
33422;BME280;19763;55.798;37.782;2023-03-26T12:25:23;149490.19;;;8.72;99.27
33422;BME280;19763;55.798;37.782;2023-03-26T12:27:50;149508.09;;;8.79;99.40
33422;BME280;19763;55.798;37.782;2023-03-26T12:30:25;149496.53;;;8.75;97.84
33422;BME280;19763;55.798;37.782;2023-03-26T12:32:54;149488.88;;;8.72;98.12
33422;BME280;19763;55.798;37.782;2023-03-26T12:35:26;149492.69;;;8.73;98.42
33422;BME280;19763;55.798;37.782;2023-03-26T12:37:53;149492.69;;;8.73;98.54
33422;BME280;19763;55.798;37.782;2023-03-26T12:40:33;149514.47;;;8.82;97.58
33422;BME280;19763;55.798;37.782;2023-03-26T12:43:22;149532.44;;;8.89;98.45
33422;BME280;19763;55.798;37.782;2023-03-26T12:45:54;149492.69;;;8.73;97.28
33422;BME280;19763;55.798;37.782;2023-03-26T12:48:20;149456.84;;;8.59;98.74
33422;BME280;19763;55.798;37.782;2023-03-26T12:59:39;149497.84;;;8.75;98.96
33422;BME280;19763;55.798;37.782;2023-03-26T13:10:19;149464.53;;;8.62;98.79
33422;BME280;19763;55.798;37.782;2023-03-26T13:13:08;149482.44;;;8.69;99.19
33422;BME280;19763;55.798;37.782;2023-03-26T13:15:51;149456.84;;;8.59;99.25
33422;BME280;19763;55.798;37.782;2023-03-26T13:18:43;149486.34;;;8.71;98.30
33422;BME280;19763;55.798;37.782;2023-03-26T13:24:31;149483.75;;;8.70;99.04
33422;BME280;19763;55.798;37.782;2023-03-26T13:30:01;149495.28;;;8.74;99.14
33422;BME280;19763;55.798;37.782;2023-03-26T13:35:56;149476.09;;;8.67;98.74
33422;BME280;19763;55.798;37.782;2023-03-26T13:49:47;149472.25;;;8.65;97.63
33422;BME280;19763;55.798;37.782;2023-03-26T13:51:57;149432.50;;;8.49;97.24
33422;BME280;19763;55.798;37.782;2023-03-26T13:54:40;149449.19;;;8.56;97.97
33422;BME280;19763;55.798;37.782;2023-03-26T13:59:43;149488.88;;;8.72;97.72
33422;BME280;19763;55.798;37.782;2023-03-26T14:02:35;149500.38;;;8.76;97.98
33422;BME280;19763;55.798;37.782;2023-03-26T14:05:12;149447.91;;;8.55;97.87
33422;BME280;19763;55.798;37.782;2023-03-26T14:07:44;149469.69;;;8.64;98.47
33422;BME280;19763;55.798;37.782;2023-03-26T14:10:16;149487.59;;;8.71;97.82
33422;BME280;19763;55.798;37.782;2023-03-26T14:15:29;149458.16;;;8.59;98.65
33422;BME280;19763;55.798;37.782;2023-03-26T14:27:06;149441.50;;;8.53;97.83
33422;BME280;19763;55.798;37.782;2023-03-26T14:35:00;149410.72;;;8.40;98.82
33422;BME280;19763;55.798;37.782;2023-03-26T14:53:45;149390.22;;;8.32;99.43
33422;BME280;19763;55.798;37.782;2023-03-26T15:07:51;149397.94;;;8.35;98.62
33422;BME280;19763;55.798;37.782;2023-03-26T15:25:04;149421.00;;;8.44;98.43
33422;BME280;19763;55.798;37.782;2023-03-26T15:27:48;149408.13;;;8.39;98.26
33422;BME280;19763;55.798;37.782;2023-03-26T15:51:52;149397.94;;;8.35;98.32
33422;BME280;19763;55.798;37.782;2023-03-26T15:54:29;149371.03;;;8.24;98.06
33422;BME280;19763;55.798;37.782;2023-03-26T16:02:48;149350.53;;;8.16;98.78
33422;BME280;19763;55.798;37.782;2023-03-26T16:10:56;149401.78;;;8.37;97.56
33422;BME280;19763;55.798;37.782;2023-03-26T16:13:41;149395.38;;;8.34;96.73
33422;BME280;19763;55.798;37.782;2023-03-26T16:16:21;149368.47;;;8.23;96.84
33422;BME280;19763;55.798;37.782;2023-03-26T16:18:55;149367.19;;;8.23;96.71
33422;BME280;19763;55.798;37.782;2023-03-26T16:21:37;149394.06;;;8.34;96.80
33422;BME280;19763;55.798;37.782;2023-03-26T16:29:20;149387.69;;;8.31;97.33
33422;BME280;19763;55.798;37.782;2023-03-26T16:34:26;149385.13;;;8.30;97.63
33422;BME280;19763;55.798;37.782;2023-03-26T16:36:53;149388.97;;;8.32;96.35
33422;BME280;19763;55.798;37.782;2023-03-26T16:39:39;149392.78;;;8.33;96.39
33422;BME280;19763;55.798;37.782;2023-03-26T16:42:32;149371.03;;;8.24;96.54
33422;BME280;19763;55.798;37.782;2023-03-26T16:45:11;149388.97;;;8.32;96.83
33422;BME280;19763;55.798;37.782;2023-03-26T16:50:48;149331.38;;;8.08;97.98
33422;BME280;19763;55.798;37.782;2023-03-26T16:58:53;149374.88;;;8.26;97.09
33422;BME280;19763;55.798;37.782;2023-03-26T17:01:45;149362.06;;;8.21;96.85
33422;BME280;19763;55.798;37.782;2023-03-26T17:04:19;149330.06;;;8.08;96.44
33422;BME280;19763;55.798;37.782;2023-03-26T17:07:07;149328.78;;;8.07;97.12
33422;BME280;19763;55.798;37.782;2023-03-26T17:13:08;149382.53;;;8.29;96.52
33422;BME280;19763;55.798;37.782;2023-03-26T17:16:03;149337.78;;;8.11;96.48
33422;BME280;19763;55.798;37.782;2023-03-26T17:21:15;149341.59;;;8.12;96.91
33422;BME280;19763;55.798;37.782;2023-03-26T17:26:33;149345.44;;;8.14;96.41
33422;BME280;19763;55.798;37.782;2023-03-26T17:42:29;149363.38;;;8.21;96.30
33422;BME280;19763;55.798;37.782;2023-03-26T17:47:55;149363.38;;;8.21;97.36
33422;BME280;19763;55.798;37.782;2023-03-26T17:50:32;149342.88;;;8.13;95.97
33422;BME280;19763;55.798;37.782;2023-03-26T17:53:33;149346.72;;;8.15;95.97
33422;BME280;19763;55.798;37.782;2023-03-26T17:56:00;149321.13;;;8.04;96.71
33422;BME280;19763;55.798;37.782;2023-03-26T17:58:34;149350.53;;;8.16;97.53
33422;BME280;19763;55.798;37.782;2023-03-26T18:01:37;149356.94;;;8.19;96.20
33422;BME280;19763;55.798;37.782;2023-03-26T18:04:04;149345.44;;;8.14;96.98
33422;BME280;19763;55.798;37.782;2023-03-26T18:09:07;149365.94;;;8.22;96.81
33422;BME280;19763;55.798;37.782;2023-03-26T18:17:37;149341.59;;;8.12;97.23
33422;BME280;19763;55.798;37.782;2023-03-26T18:20:05;149345.44;;;8.14;97.65
33422;BME280;19763;55.798;37.782;2023-03-26T18:22:30;149368.47;;;8.23;96.92
33422;BME280;19763;55.798;37.782;2023-03-26T18:24:59;149358.22;;;8.19;97.79
33422;BME280;19763;55.798;37.782;2023-03-26T18:27:32;149337.78;;;8.11;98.01
33422;BME280;19763;55.798;37.782;2023-03-26T18:30:08;149340.28;;;8.12;97.65
33422;BME280;19763;55.798;37.782;2023-03-26T18:32:46;149333.94;;;8.09;97.37
33422;BME280;19763;55.798;37.782;2023-03-26T18:35:20;149339.03;;;8.11;97.53
33422;BME280;19763;55.798;37.782;2023-03-26T18:37:48;149331.38;;;8.08;97.61
33422;BME280;19763;55.798;37.782;2023-03-26T18:40:17;149340.28;;;8.12;97.30
33422;BME280;19763;55.798;37.782;2023-03-26T18:42:47;149299.38;;;7.95;97.55
33422;BME280;19763;55.798;37.782;2023-03-26T18:45:26;149328.78;;;8.07;97.63